sensor_id;sensor_type;location;lat;lon;timestamp;temperature;humidity
19538;DHT22;9914;51.008;4.300;2023-02-01T00:01:36;8.30;99.90
19538;DHT22;9914;51.008;4.300;2023-02-01T00:04:02;8.30;99.90
19538;DHT22;9914;51.008;4.300;2023-02-01T00:06:28;8.40;99.90
19538;DHT22;9914;51.008;4.300;2023-02-01T00:08:54;8.40;99.90
19538;DHT22;9914;51.008;4.300;2023-02-01T00:11:20;8.40;99.90
19538;DHT22;9914;51.008;4.300;2023-02-01T00:13:47;8.50;99.90
19538;DHT22;9914;51.008;4.300;2023-02-01T00:16:16;8.40;99.90
19538;DHT22;9914;51.008;4.300;2023-02-01T00:18:42;8.40;99.90
19538;DHT22;9914;51.008;4.300;2023-02-01T00:21:10;8.40;99.90
19538;DHT22;9914;51.008;4.300;2023-02-01T00:23:36;8.40;99.90
19538;DHT22;9914;51.008;4.300;2023-02-01T00:26:04;8.40;99.90
19538;DHT22;9914;51.008;4.300;2023-02-01T00:28:30;8.40;99.90
19538;DHT22;9914;51.008;4.300;2023-02-01T00:31:00;8.50;99.90
19538;DHT22;9914;51.008;4.300;2023-02-01T00:33:27;8.50;99.90
19538;DHT22;9914;51.008;4.300;2023-02-01T00:35:56;8.50;99.90
19538;DHT22;9914;51.008;4.300;2023-02-01T00:38:22;8.50;99.90
19538;DHT22;9914;51.008;4.300;2023-02-01T00:40:48;8.40;99.90
19538;DHT22;9914;51.008;4.300;2023-02-01T00:43:13;8.30;99.90
19538;DHT22;9914;51.008;4.300;2023-02-01T00:45:39;8.30;99.90
19538;DHT22;9914;51.008;4.300;2023-02-01T00:48:05;8.20;99.90
19538;DHT22;9914;51.008;4.300;2023-02-01T00:50:30;8.20;99.90
19538;DHT22;9914;51.008;4.300;2023-02-01T00:52:56;8.30;99.90
19538;DHT22;9914;51.008;4.300;2023-02-01T00:55:21;8.20;99.90
19538;DHT22;9914;51.008;4.300;2023-02-01T00:57:47;8.10;99.90
19538;DHT22;9914;51.008;4.300;2023-02-01T01:00:13;7.90;99.90
19538;DHT22;9914;51.008;4.300;2023-02-01T01:02:39;7.90;99.90
19538;DHT22;9914;51.008;4.300;2023-02-01T01:05:04;8.00;99.90
19538;DHT22;9914;51.008;4.300;2023-02-01T01:07:30;8.10;99.90
19538;DHT22;9914;51.008;4.300;2023-02-01T01:09:55;8.00;99.90
19538;DHT22;9914;51.008;4.300;2023-02-01T01:12:21;8.00;99.90
19538;DHT22;9914;51.008;4.300;2023-02-01T01:14:47;8.10;99.90
19538;DHT22;9914;51.008;4.300;2023-02-01T01:17:12;8.00;99.90
19538;DHT22;9914;51.008;4.300;2023-02-01T01:19:38;7.90;99.90
19538;DHT22;9914;51.008;4.300;2023-02-01T01:22:03;7.90;99.90
19538;DHT22;9914;51.008;4.300;2023-02-01T01:24:29;8.00;99.90
19538;DHT22;9914;51.008;4.300;2023-02-01T01:26:54;8.00;99.90
19538;DHT22;9914;51.008;4.300;2023-02-01T01:29:20;8.00;99.90
19538;DHT22;9914;51.008;4.300;2023-02-01T01:31:46;8.10;99.90
19538;DHT22;9914;51.008;4.300;2023-02-01T01:34:11;8.10;99.90
19538;DHT22;9914;51.008;4.300;2023-02-01T01:36:37;8.10;99.90
19538;DHT22;9914;51.008;4.300;2023-02-01T01:39:02;8.00;99.90
19538;DHT22;9914;51.008;4.300;2023-02-01T01:41:30;8.00;99.90
19538;DHT22;9914;51.008;4.300;2023-02-01T01:43:59;7.90;99.90
19538;DHT22;9914;51.008;4.300;2023-02-01T01:46:27;7.80;99.90
19538;DHT22;9914;51.008;4.300;2023-02-01T01:51:24;7.60;99.90
19538;DHT22;9914;51.008;4.300;2023-02-01T01:54:14;7.60;99.90
19538;DHT22;9914;51.008;4.300;2023-02-01T01:56:43;7.50;99.90
19538;DHT22;9914;51.008;4.300;2023-02-01T01:59:11;7.40;99.90
19538;DHT22;9914;51.008;4.300;2023-02-01T02:01:38;7.40;99.90
19538;DHT22;9914;51.008;4.300;2023-02-01T02:04:04;7.40;99.90
19538;DHT22;9914;51.008;4.300;2023-02-01T02:06:43;7.40;99.90
19538;DHT22;9914;51.008;4.300;2023-02-01T02:09:13;7.40;99.90
19538;DHT22;9914;51.008;4.300;2023-02-01T02:11:40;7.30;99.90
19538;DHT22;9914;51.008;4.300;2023-02-01T02:14:08;7.30;99.90
19538;DHT22;9914;51.008;4.300;2023-02-01T02:21:56;7.20;99.90
19538;DHT22;9914;51.008;4.300;2023-02-01T02:29:58;7.10;99.90
19538;DHT22;9914;51.008;4.300;2023-02-01T02:32:44;7.10;99.90
19538;DHT22;9914;51.008;4.300;2023-02-01T02:37:58;7.00;99.90
19538;DHT22;9914;51.008;4.300;2023-02-01T02:40:32;7.00;99.90
19538;DHT22;9914;51.008;4.300;2023-02-01T02:43:18;7.00;99.90
19538;DHT22;9914;51.008;4.300;2023-02-01T02:46:29;7.00;99.90
19538;DHT22;9914;51.008;4.300;2023-02-01T02:49:25;7.10;99.90
19538;DHT22;9914;51.008;4.300;2023-02-01T02:52:15;7.00;99.90
19538;DHT22;9914;51.008;4.300;2023-02-01T02:55:01;7.00;99.90
19538;DHT22;9914;51.008;4.300;2023-02-01T02:57:37;7.00;99.90
19538;DHT22;9914;51.008;4.300;2023-02-01T03:00:28;7.00;99.90
19538;DHT22;9914;51.008;4.300;2023-02-01T03:03:14;7.00;99.90
19538;DHT22;9914;51.008;4.300;2023-02-01T03:05:58;7.00;99.90
19538;DHT22;9914;51.008;4.300;2023-02-01T03:08:27;7.00;99.90
19538;DHT22;9914;51.008;4.300;2023-02-01T03:11:06;7.00;99.90
19538;DHT22;9914;51.008;4.300;2023-02-01T03:16:30;6.90;99.90
19538;DHT22;9914;51.008;4.300;2023-02-01T03:19:01;7.00;99.90
19538;DHT22;9914;51.008;4.300;2023-02-01T03:24:14;7.00;99.90
19538;DHT22;9914;51.008;4.300;2023-02-01T03:26:54;7.00;99.90
19538;DHT22;9914;51.008;4.300;2023-02-01T03:29:29;7.00;99.90
19538;DHT22;9914;51.008;4.300;2023-02-01T03:31:56;7.00;99.90
19538;DHT22;9914;51.008;4.300;2023-02-01T03:34:22;7.00;99.90
19538;DHT22;9914;51.008;4.300;2023-02-01T03:37:00;7.00;99.90
19538;DHT22;9914;51.008;4.300;2023-02-01T03:39:32;7.00;99.90
19538;DHT22;9914;51.008;4.300;2023-02-01T03:42:04;7.00;99.90
19538;DHT22;9914;51.008;4.300;2023-02-01T03:44:41;7.00;99.90
19538;DHT22;9914;51.008;4.300;2023-02-01T03:47:12;7.00;99.90
19538;DHT22;9914;51.008;4.300;2023-02-01T03:50:03;7.00;99.90
19538;DHT22;9914;51.008;4.300;2023-02-01T03:55:03;7.00;99.90
19538;DHT22;9914;51.008;4.300;2023-02-01T03:57:35;7.00;99.90
19538;DHT22;9914;51.008;4.300;2023-02-01T04:00:24;7.00;99.90
19538;DHT22;9914;51.008;4.300;2023-02-01T04:02:50;6.90;99.90
19538;DHT22;9914;51.008;4.300;2023-02-01T04:05:16;6.80;99.90
19538;DHT22;9914;51.008;4.300;2023-02-01T04:07:42;6.80;99.90
19538;DHT22;9914;51.008;4.300;2023-02-01T04:10:09;6.80;99.90
19538;DHT22;9914;51.008;4.300;2023-02-01T04:12:34;6.80;99.90
19538;DHT22;9914;51.008;4.300;2023-02-01T04:15:00;6.80;99.90
19538;DHT22;9914;51.008;4.300;2023-02-01T04:17:26;6.80;99.90
19538;DHT22;9914;51.008;4.300;2023-02-01T04:19:51;6.80;99.90
19538;DHT22;9914;51.008;4.300;2023-02-01T04:22:17;6.80;99.90
19538;DHT22;9914;51.008;4.300;2023-02-01T04:24:42;6.80;99.90
19538;DHT22;9914;51.008;4.300;2023-02-01T04:27:08;6.80;99.90
19538;DHT22;9914;51.008;4.300;2023-02-01T04:29:33;6.90;99.90
19538;DHT22;9914;51.008;4.300;2023-02-01T04:31:59;6.80;99.90
19538;DHT22;9914;51.008;4.300;2023-02-01T04:34:25;6.70;99.90
19538;DHT22;9914;51.008;4.300;2023-02-01T04:36:51;6.70;99.90
19538;DHT22;9914;51.008;4.300;2023-02-01T04:39:17;6.70;99.90
19538;DHT22;9914;51.008;4.300;2023-02-01T04:41:43;6.70;99.90
19538;DHT22;9914;51.008;4.300;2023-02-01T04:44:16;6.60;99.90
19538;DHT22;9914;51.008;4.300;2023-02-01T04:46:43;6.60;99.90
19538;DHT22;9914;51.008;4.300;2023-02-01T04:49:10;6.70;99.90
19538;DHT22;9914;51.008;4.300;2023-02-01T04:51:36;6.70;99.90
19538;DHT22;9914;51.008;4.300;2023-02-01T04:54:02;6.70;99.90
19538;DHT22;9914;51.008;4.300;2023-02-01T04:56:28;6.60;99.90
19538;DHT22;9914;51.008;4.300;2023-02-01T04:58:53;6.60;99.90
19538;DHT22;9914;51.008;4.300;2023-02-01T05:01:22;6.60;99.90
19538;DHT22;9914;51.008;4.300;2023-02-01T05:03:50;6.60;99.90
19538;DHT22;9914;51.008;4.300;2023-02-01T05:06:16;6.60;99.90
19538;DHT22;9914;51.008;4.300;2023-02-01T05:08:42;6.60;99.90
19538;DHT22;9914;51.008;4.300;2023-02-01T05:11:07;6.50;99.90
19538;DHT22;9914;51.008;4.300;2023-02-01T05:13:53;6.50;99.90
19538;DHT22;9914;51.008;4.300;2023-02-01T05:16:18;6.40;99.90
19538;DHT22;9914;51.008;4.300;2023-02-01T05:18:44;6.40;99.90
19538;DHT22;9914;51.008;4.300;2023-02-01T05:21:10;6.30;99.90
19538;DHT22;9914;51.008;4.300;2023-02-01T05:23:35;6.30;99.90
19538;DHT22;9914;51.008;4.300;2023-02-01T05:26:21;6.30;99.90
19538;DHT22;9914;51.008;4.300;2023-02-01T05:28:47;6.20;99.90
19538;DHT22;9914;51.008;4.300;2023-02-01T05:31:12;6.20;99.90
19538;DHT22;9914;51.008;4.300;2023-02-01T05:33:38;6.20;99.90
19538;DHT22;9914;51.008;4.300;2023-02-01T05:36:04;6.20;99.90
19538;DHT22;9914;51.008;4.300;2023-02-01T05:38:29;6.20;99.90
19538;DHT22;9914;51.008;4.300;2023-02-01T05:40:55;6.20;99.90
19538;DHT22;9914;51.008;4.300;2023-02-01T05:43:21;6.20;99.90
19538;DHT22;9914;51.008;4.300;2023-02-01T05:45:47;6.10;99.90
19538;DHT22;9914;51.008;4.300;2023-02-01T05:48:12;6.10;99.90
19538;DHT22;9914;51.008;4.300;2023-02-01T05:50:38;6.10;99.90
19538;DHT22;9914;51.008;4.300;2023-02-01T05:53:04;6.10;99.90
19538;DHT22;9914;51.008;4.300;2023-02-01T05:55:31;6.20;99.90
19538;DHT22;9914;51.008;4.300;2023-02-01T05:57:56;6.10;99.90
19538;DHT22;9914;51.008;4.300;2023-02-01T06:00:23;6.10;99.90
19538;DHT22;9914;51.008;4.300;2023-02-01T06:02:48;6.10;99.90
19538;DHT22;9914;51.008;4.300;2023-02-01T06:05:14;6.10;99.90
19538;DHT22;9914;51.008;4.300;2023-02-01T06:07:39;6.20;99.90
19538;DHT22;9914;51.008;4.300;2023-02-01T06:10:05;6.10;99.90
19538;DHT22;9914;51.008;4.300;2023-02-01T06:12:32;6.10;99.90
19538;DHT22;9914;51.008;4.300;2023-02-01T06:14:57;6.10;99.90
19538;DHT22;9914;51.008;4.300;2023-02-01T06:17:24;6.10;99.90
19538;DHT22;9914;51.008;4.300;2023-02-01T06:19:50;6.10;99.90
19538;DHT22;9914;51.008;4.300;2023-02-01T06:22:16;6.10;99.90
19538;DHT22;9914;51.008;4.300;2023-02-01T06:24:42;6.10;99.90
19538;DHT22;9914;51.008;4.300;2023-02-01T06:27:08;6.10;99.90
19538;DHT22;9914;51.008;4.300;2023-02-01T06:29:34;6.10;99.90
19538;DHT22;9914;51.008;4.300;2023-02-01T06:32:00;6.10;99.90
19538;DHT22;9914;51.008;4.300;2023-02-01T06:34:26;6.10;99.90
19538;DHT22;9914;51.008;4.300;2023-02-01T06:36:51;6.10;99.90
19538;DHT22;9914;51.008;4.300;2023-02-01T06:39:17;6.00;99.90
19538;DHT22;9914;51.008;4.300;2023-02-01T06:41:46;6.10;99.90
19538;DHT22;9914;51.008;4.300;2023-02-01T06:44:12;6.00;99.90
19538;DHT22;9914;51.008;4.300;2023-02-01T06:46:38;6.10;99.90
19538;DHT22;9914;51.008;4.300;2023-02-01T06:49:03;6.10;99.90
19538;DHT22;9914;51.008;4.300;2023-02-01T06:51:29;6.10;99.90
19538;DHT22;9914;51.008;4.300;2023-02-01T06:53:55;6.10;99.90
19538;DHT22;9914;51.008;4.300;2023-02-01T06:56:21;6.10;99.90
19538;DHT22;9914;51.008;4.300;2023-02-01T06:58:47;6.10;99.90
19538;DHT22;9914;51.008;4.300;2023-02-01T07:01:13;6.10;99.90
19538;DHT22;9914;51.008;4.300;2023-02-01T07:03:39;6.10;99.90
19538;DHT22;9914;51.008;4.300;2023-02-01T07:06:05;6.10;99.90
19538;DHT22;9914;51.008;4.300;2023-02-01T07:08:34;6.10;99.90
19538;DHT22;9914;51.008;4.300;2023-02-01T07:11:09;6.10;99.90
19538;DHT22;9914;51.008;4.300;2023-02-01T07:13:35;6.10;99.90
19538;DHT22;9914;51.008;4.300;2023-02-01T07:16:02;6.10;99.90
19538;DHT22;9914;51.008;4.300;2023-02-01T07:18:29;6.20;99.90
19538;DHT22;9914;51.008;4.300;2023-02-01T07:20:55;6.20;99.90
19538;DHT22;9914;51.008;4.300;2023-02-01T07:23:21;6.30;99.90
19538;DHT22;9914;51.008;4.300;2023-02-01T07:25:47;6.20;99.90
19538;DHT22;9914;51.008;4.300;2023-02-01T07:28:13;6.30;99.90
19538;DHT22;9914;51.008;4.300;2023-02-01T07:30:39;6.20;99.90
19538;DHT22;9914;51.008;4.300;2023-02-01T07:33:06;6.20;99.90
19538;DHT22;9914;51.008;4.300;2023-02-01T07:35:32;6.20;99.90
19538;DHT22;9914;51.008;4.300;2023-02-01T07:37:58;6.20;99.90
19538;DHT22;9914;51.008;4.300;2023-02-01T07:40:24;6.20;99.90
19538;DHT22;9914;51.008;4.300;2023-02-01T07:42:55;6.10;99.90
19538;DHT22;9914;51.008;4.300;2023-02-01T07:45:21;6.20;99.90
19538;DHT22;9914;51.008;4.300;2023-02-01T07:47:47;6.20;99.90
19538;DHT22;9914;51.008;4.300;2023-02-01T07:50:13;6.20;99.90
19538;DHT22;9914;51.008;4.300;2023-02-01T07:52:38;6.30;99.90
19538;DHT22;9914;51.008;4.300;2023-02-01T07:55:06;6.30;99.90
19538;DHT22;9914;51.008;4.300;2023-02-01T07:57:31;6.40;99.90
19538;DHT22;9914;51.008;4.300;2023-02-01T07:59:57;6.40;99.90
19538;DHT22;9914;51.008;4.300;2023-02-01T08:02:41;6.40;99.90
19538;DHT22;9914;51.008;4.300;2023-02-01T08:05:07;6.50;99.90
19538;DHT22;9914;51.008;4.300;2023-02-01T08:07:33;6.40;99.90
19538;DHT22;9914;51.008;4.300;2023-02-01T08:09:58;6.50;99.90
19538;DHT22;9914;51.008;4.300;2023-02-01T08:12:25;6.60;99.90
19538;DHT22;9914;51.008;4.300;2023-02-01T08:14:52;6.60;99.90
19538;DHT22;9914;51.008;4.300;2023-02-01T08:17:19;6.60;99.90
19538;DHT22;9914;51.008;4.300;2023-02-01T08:19:45;6.60;99.90
19538;DHT22;9914;51.008;4.300;2023-02-01T08:22:10;6.70;99.90
19538;DHT22;9914;51.008;4.300;2023-02-01T08:24:36;6.70;99.90
19538;DHT22;9914;51.008;4.300;2023-02-01T08:27:05;6.70;99.90
19538;DHT22;9914;51.008;4.300;2023-02-01T08:29:30;6.70;99.90
19538;DHT22;9914;51.008;4.300;2023-02-01T08:31:56;6.80;99.90
19538;DHT22;9914;51.008;4.300;2023-02-01T08:34:22;6.80;99.90
19538;DHT22;9914;51.008;4.300;2023-02-01T08:36:48;6.80;99.90
19538;DHT22;9914;51.008;4.300;2023-02-01T08:39:14;6.80;99.90
19538;DHT22;9914;51.008;4.300;2023-02-01T08:41:40;6.90;99.90
19538;DHT22;9914;51.008;4.300;2023-02-01T08:44:07;6.90;99.90
19538;DHT22;9914;51.008;4.300;2023-02-01T08:46:33;6.90;99.90
19538;DHT22;9914;51.008;4.300;2023-02-01T08:48:58;6.90;99.90
19538;DHT22;9914;51.008;4.300;2023-02-01T08:51:24;7.00;99.90
19538;DHT22;9914;51.008;4.300;2023-02-01T08:53:50;7.00;99.90
19538;DHT22;9914;51.008;4.300;2023-02-01T08:56:17;7.10;99.90
19538;DHT22;9914;51.008;4.300;2023-02-01T08:58:43;7.20;99.90
19538;DHT22;9914;51.008;4.300;2023-02-01T09:01:12;7.20;99.90
19538;DHT22;9914;51.008;4.300;2023-02-01T09:03:38;7.20;99.90
19538;DHT22;9914;51.008;4.300;2023-02-01T09:06:09;7.20;99.90
19538;DHT22;9914;51.008;4.300;2023-02-01T09:08:36;7.30;99.90
19538;DHT22;9914;51.008;4.300;2023-02-01T09:11:05;7.30;99.90
19538;DHT22;9914;51.008;4.300;2023-02-01T09:13:31;7.40;99.90
19538;DHT22;9914;51.008;4.300;2023-02-01T09:15:56;7.40;99.90
19538;DHT22;9914;51.008;4.300;2023-02-01T09:18:22;7.50;99.90
19538;DHT22;9914;51.008;4.300;2023-02-01T09:20:48;7.50;99.90
19538;DHT22;9914;51.008;4.300;2023-02-01T09:23:13;7.50;99.90
19538;DHT22;9914;51.008;4.300;2023-02-01T09:25:39;7.50;99.90
19538;DHT22;9914;51.008;4.300;2023-02-01T09:28:05;7.60;99.90
19538;DHT22;9914;51.008;4.300;2023-02-01T09:30:35;7.70;99.90
19538;DHT22;9914;51.008;4.300;2023-02-01T09:33:01;7.70;99.90
19538;DHT22;9914;51.008;4.300;2023-02-01T09:35:27;7.80;99.90
19538;DHT22;9914;51.008;4.300;2023-02-01T09:37:53;7.80;99.90
19538;DHT22;9914;51.008;4.300;2023-02-01T09:40:19;7.90;99.90
19538;DHT22;9914;51.008;4.300;2023-02-01T09:43:13;7.90;99.90
19538;DHT22;9914;51.008;4.300;2023-02-01T09:48:39;7.90;99.90
19538;DHT22;9914;51.008;4.300;2023-02-01T09:51:13;8.00;99.90
19538;DHT22;9914;51.008;4.300;2023-02-01T09:53:45;8.00;99.90
19538;DHT22;9914;51.008;4.300;2023-02-01T09:56:15;8.10;99.90
19538;DHT22;9914;51.008;4.300;2023-02-01T10:01:40;8.40;99.90
19538;DHT22;9914;51.008;4.300;2023-02-01T10:04:11;8.30;99.90
19538;DHT22;9914;51.008;4.300;2023-02-01T10:10:00;8.30;99.90
19538;DHT22;9914;51.008;4.300;2023-02-01T10:18:45;8.60;99.90
19538;DHT22;9914;51.008;4.300;2023-02-01T10:21:38;8.60;99.90
19538;DHT22;9914;51.008;4.300;2023-02-01T10:24:25;8.60;99.90
19538;DHT22;9914;51.008;4.300;2023-02-01T10:27:23;8.70;99.90
19538;DHT22;9914;51.008;4.300;2023-02-01T10:30:04;8.70;99.90
19538;DHT22;9914;51.008;4.300;2023-02-01T10:32:33;8.90;99.90
19538;DHT22;9914;51.008;4.300;2023-02-01T10:35:12;9.00;99.90
19538;DHT22;9914;51.008;4.300;2023-02-01T10:37:41;9.10;99.90
19538;DHT22;9914;51.008;4.300;2023-02-01T10:42:35;9.30;99.90
19538;DHT22;9914;51.008;4.300;2023-02-01T10:45:02;9.30;99.90
19538;DHT22;9914;51.008;4.300;2023-02-01T10:47:29;9.30;99.90
19538;DHT22;9914;51.008;4.300;2023-02-01T10:50:04;9.20;99.90
19538;DHT22;9914;51.008;4.300;2023-02-01T10:52:47;9.30;99.90
19538;DHT22;9914;51.008;4.300;2023-02-01T10:55:28;9.40;99.90
19538;DHT22;9914;51.008;4.300;2023-02-01T10:58:32;9.40;99.90
19538;DHT22;9914;51.008;4.300;2023-02-01T11:01:03;9.50;99.90
19538;DHT22;9914;51.008;4.300;2023-02-01T11:08:48;9.70;99.90
19538;DHT22;9914;51.008;4.300;2023-02-01T11:11:14;9.70;99.90
19538;DHT22;9914;51.008;4.300;2023-02-01T11:13:40;9.70;99.90
19538;DHT22;9914;51.008;4.300;2023-02-01T11:16:09;9.50;99.90
19538;DHT22;9914;51.008;4.300;2023-02-01T11:18:37;9.50;99.90
19538;DHT22;9914;51.008;4.300;2023-02-01T11:21:08;9.60;99.90
19538;DHT22;9914;51.008;4.300;2023-02-01T11:23:40;9.50;99.90
19538;DHT22;9914;51.008;4.300;2023-02-01T11:26:22;9.50;99.90
19538;DHT22;9914;51.008;4.300;2023-02-01T11:29:10;9.50;99.90
19538;DHT22;9914;51.008;4.300;2023-02-01T11:31:36;9.50;99.90
19538;DHT22;9914;51.008;4.300;2023-02-01T11:34:21;9.60;99.90
19538;DHT22;9914;51.008;4.300;2023-02-01T11:36:49;9.70;99.90
19538;DHT22;9914;51.008;4.300;2023-02-01T11:44:35;9.80;99.90
19538;DHT22;9914;51.008;4.300;2023-02-01T11:47:27;10.00;99.90
19538;DHT22;9914;51.008;4.300;2023-02-01T11:49:55;10.20;99.90
19538;DHT22;9914;51.008;4.300;2023-02-01T11:55:15;10.50;99.90
19538;DHT22;9914;51.008;4.300;2023-02-01T11:57:57;10.70;99.90
19538;DHT22;9914;51.008;4.300;2023-02-01T12:03:40;10.60;99.90
19538;DHT22;9914;51.008;4.300;2023-02-01T12:06:54;10.60;99.90
19538;DHT22;9914;51.008;4.300;2023-02-01T12:29:57;10.70;99.90
19538;DHT22;9914;51.008;4.300;2023-02-01T12:42:28;10.90;99.90
19538;DHT22;9914;51.008;4.300;2023-02-01T12:45:02;10.80;99.90
19538;DHT22;9914;51.008;4.300;2023-02-01T12:47:37;10.90;99.90
19538;DHT22;9914;51.008;4.300;2023-02-01T12:50:18;11.20;99.90
19538;DHT22;9914;51.008;4.300;2023-02-01T12:52:49;11.10;99.90
19538;DHT22;9914;51.008;4.300;2023-02-01T12:55:27;11.20;99.90
19538;DHT22;9914;51.008;4.300;2023-02-01T12:58:50;11.30;99.90
19538;DHT22;9914;51.008;4.300;2023-02-01T13:01:29;11.50;99.90
19538;DHT22;9914;51.008;4.300;2023-02-01T13:04:17;11.50;99.90
19538;DHT22;9914;51.008;4.300;2023-02-01T13:06:49;11.50;99.90
19538;DHT22;9914;51.008;4.300;2023-02-01T13:09:34;11.70;99.90
19538;DHT22;9914;51.008;4.300;2023-02-01T13:12:22;11.70;99.90
19538;DHT22;9914;51.008;4.300;2023-02-01T13:14:59;11.50;99.90
19538;DHT22;9914;51.008;4.300;2023-02-01T13:17:29;11.50;99.90
19538;DHT22;9914;51.008;4.300;2023-02-01T13:22:38;11.70;99.90
19538;DHT22;9914;51.008;4.300;2023-02-01T13:27:41;12.00;99.90
19538;DHT22;9914;51.008;4.300;2023-02-01T13:43:28;11.30;99.90
19538;DHT22;9914;51.008;4.300;2023-02-01T13:46:01;11.40;99.90
19538;DHT22;9914;51.008;4.300;2023-02-01T13:50:59;11.30;99.90
19538;DHT22;9914;51.008;4.300;2023-02-01T13:53:30;11.40;99.90
19538;DHT22;9914;51.008;4.300;2023-02-01T13:58:39;11.50;99.90
19538;DHT22;9914;51.008;4.300;2023-02-01T14:03:55;11.60;99.90
19538;DHT22;9914;51.008;4.300;2023-02-01T14:19:26;11.30;99.90
19538;DHT22;9914;51.008;4.300;2023-02-01T14:21:57;11.00;99.90
19538;DHT22;9914;51.008;4.300;2023-02-01T14:27:01;10.90;99.90
19538;DHT22;9914;51.008;4.300;2023-02-01T14:29:42;10.90;99.90
19538;DHT22;9914;51.008;4.300;2023-02-01T14:32:17;10.90;99.90
19538;DHT22;9914;51.008;4.300;2023-02-01T14:42:25;10.70;99.90
19538;DHT22;9914;51.008;4.300;2023-02-01T14:44:52;10.60;99.90
19538;DHT22;9914;51.008;4.300;2023-02-01T14:52:41;10.60;99.90
19538;DHT22;9914;51.008;4.300;2023-02-01T14:55:21;10.70;99.90
19538;DHT22;9914;51.008;4.300;2023-02-01T14:57:51;10.70;99.90
19538;DHT22;9914;51.008;4.300;2023-02-01T15:00:25;10.50;99.90
19538;DHT22;9914;51.008;4.300;2023-02-01T15:02:52;10.60;99.90
19538;DHT22;9914;51.008;4.300;2023-02-01T15:05:27;10.60;99.90
19538;DHT22;9914;51.008;4.300;2023-02-01T15:07:58;10.70;99.90
19538;DHT22;9914;51.008;4.300;2023-02-01T15:10:25;10.60;99.90
19538;DHT22;9914;51.008;4.300;2023-02-01T15:12:51;10.60;99.90
19538;DHT22;9914;51.008;4.300;2023-02-01T15:15:22;10.60;99.90
19538;DHT22;9914;51.008;4.300;2023-02-01T15:17:57;10.60;99.90
19538;DHT22;9914;51.008;4.300;2023-02-01T15:20:31;10.60;99.90
19538;DHT22;9914;51.008;4.300;2023-02-01T15:23:03;10.50;99.90
19538;DHT22;9914;51.008;4.300;2023-02-01T15:25:32;10.30;99.90
19538;DHT22;9914;51.008;4.300;2023-02-01T15:27:58;10.20;99.90
19538;DHT22;9914;51.008;4.300;2023-02-01T15:30:30;10.10;99.90
19538;DHT22;9914;51.008;4.300;2023-02-01T15:44:05;10.10;99.90
19538;DHT22;9914;51.008;4.300;2023-02-01T15:46:38;10.10;99.90
19538;DHT22;9914;51.008;4.300;2023-02-01T15:49:05;10.00;99.90
19538;DHT22;9914;51.008;4.300;2023-02-01T15:51:44;10.10;99.90
19538;DHT22;9914;51.008;4.300;2023-02-01T15:54:46;10.10;99.90
19538;DHT22;9914;51.008;4.300;2023-02-01T15:57:23;10.20;99.90
19538;DHT22;9914;51.008;4.300;2023-02-01T16:00:17;10.20;99.90
19538;DHT22;9914;51.008;4.300;2023-02-01T16:05:38;10.10;99.90
19538;DHT22;9914;51.008;4.300;2023-02-01T16:08:16;10.20;99.90
19538;DHT22;9914;51.008;4.300;2023-02-01T16:10:47;10.20;99.90
19538;DHT22;9914;51.008;4.300;2023-02-01T16:13:14;10.10;99.90
19538;DHT22;9914;51.008;4.300;2023-02-01T16:15:40;10.10;99.90
19538;DHT22;9914;51.008;4.300;2023-02-01T16:18:07;10.20;99.90
19538;DHT22;9914;51.008;4.300;2023-02-01T16:20:34;10.30;99.90
19538;DHT22;9914;51.008;4.300;2023-02-01T16:23:01;10.20;99.90
19538;DHT22;9914;51.008;4.300;2023-02-01T16:25:27;10.20;99.90
19538;DHT22;9914;51.008;4.300;2023-02-01T16:27:53;10.10;99.90
19538;DHT22;9914;51.008;4.300;2023-02-01T16:30:18;10.10;99.90
19538;DHT22;9914;51.008;4.300;2023-02-01T16:32:49;10.10;99.90
19538;DHT22;9914;51.008;4.300;2023-02-01T16:35:23;10.10;99.90
19538;DHT22;9914;51.008;4.300;2023-02-01T16:37:48;10.10;99.90
19538;DHT22;9914;51.008;4.300;2023-02-01T16:40:15;10.20;99.90
19538;DHT22;9914;51.008;4.300;2023-02-01T16:42:41;10.10;99.90
19538;DHT22;9914;51.008;4.300;2023-02-01T16:45:07;10.10;99.90
19538;DHT22;9914;51.008;4.300;2023-02-01T16:47:36;10.10;99.90
19538;DHT22;9914;51.008;4.300;2023-02-01T16:50:02;10.20;99.90
19538;DHT22;9914;51.008;4.300;2023-02-01T16:52:28;10.20;99.90
19538;DHT22;9914;51.008;4.300;2023-02-01T16:54:53;10.20;99.90
19538;DHT22;9914;51.008;4.300;2023-02-01T16:57:20;10.20;99.90
19538;DHT22;9914;51.008;4.300;2023-02-01T16:59:49;10.10;99.90
19538;DHT22;9914;51.008;4.300;2023-02-01T17:02:17;10.10;99.90
19538;DHT22;9914;51.008;4.300;2023-02-01T17:04:44;10.10;99.90
19538;DHT22;9914;51.008;4.300;2023-02-01T17:07:19;10.10;99.90
19538;DHT22;9914;51.008;4.300;2023-02-01T17:09:46;10.20;99.90
19538;DHT22;9914;51.008;4.300;2023-02-01T17:12:29;10.20;99.90
19538;DHT22;9914;51.008;4.300;2023-02-01T17:14:56;10.30;99.90
19538;DHT22;9914;51.008;4.300;2023-02-01T17:17:23;10.30;99.90
19538;DHT22;9914;51.008;4.300;2023-02-01T17:19:51;10.20;99.90
19538;DHT22;9914;51.008;4.300;2023-02-01T17:22:19;10.20;99.90
19538;DHT22;9914;51.008;4.300;2023-02-01T17:24:45;10.00;99.90
19538;DHT22;9914;51.008;4.300;2023-02-01T17:27:11;10.00;99.90
19538;DHT22;9914;51.008;4.300;2023-02-01T17:29:37;10.00;99.90
19538;DHT22;9914;51.008;4.300;2023-02-01T17:32:03;10.00;99.90
19538;DHT22;9914;51.008;4.300;2023-02-01T17:34:29;10.00;99.90
19538;DHT22;9914;51.008;4.300;2023-02-01T17:36:55;10.00;99.90
19538;DHT22;9914;51.008;4.300;2023-02-01T17:39:21;10.00;99.90
19538;DHT22;9914;51.008;4.300;2023-02-01T17:42:09;9.90;99.90
19538;DHT22;9914;51.008;4.300;2023-02-01T17:44:35;9.90;99.90
19538;DHT22;9914;51.008;4.300;2023-02-01T17:47:01;9.80;99.90
19538;DHT22;9914;51.008;4.300;2023-02-01T17:49:26;9.90;99.90
19538;DHT22;9914;51.008;4.300;2023-02-01T17:51:56;9.90;99.90
19538;DHT22;9914;51.008;4.300;2023-02-01T17:54:22;9.90;99.90
19538;DHT22;9914;51.008;4.300;2023-02-01T17:56:48;10.00;99.90
19538;DHT22;9914;51.008;4.300;2023-02-01T17:59:14;10.10;99.90
19538;DHT22;9914;51.008;4.300;2023-02-01T18:01:40;10.10;99.90
19538;DHT22;9914;51.008;4.300;2023-02-01T18:04:11;10.10;99.90
19538;DHT22;9914;51.008;4.300;2023-02-01T18:06:37;10.10;99.90
19538;DHT22;9914;51.008;4.300;2023-02-01T18:09:03;10.10;99.90
19538;DHT22;9914;51.008;4.300;2023-02-01T18:11:28;10.00;99.90
19538;DHT22;9914;51.008;4.300;2023-02-01T18:13:57;10.00;99.90
19538;DHT22;9914;51.008;4.300;2023-02-01T18:16:31;10.00;99.90
19538;DHT22;9914;51.008;4.300;2023-02-01T18:18:57;10.10;99.90
19538;DHT22;9914;51.008;4.300;2023-02-01T18:21:35;10.10;99.90
19538;DHT22;9914;51.008;4.300;2023-02-01T18:24:02;10.20;99.90
19538;DHT22;9914;51.008;4.300;2023-02-01T18:26:27;10.20;99.90
19538;DHT22;9914;51.008;4.300;2023-02-01T18:28:53;10.10;99.90
19538;DHT22;9914;51.008;4.300;2023-02-01T18:33:47;9.90;99.90
19538;DHT22;9914;51.008;4.300;2023-02-01T18:36:13;9.90;99.90
19538;DHT22;9914;51.008;4.300;2023-02-01T18:38:40;9.90;99.90
19538;DHT22;9914;51.008;4.300;2023-02-01T18:41:06;10.00;99.90
19538;DHT22;9914;51.008;4.300;2023-02-01T18:43:33;9.90;99.90
19538;DHT22;9914;51.008;4.300;2023-02-01T18:45:59;10.00;99.90
19538;DHT22;9914;51.008;4.300;2023-02-01T18:48:24;10.00;99.90
19538;DHT22;9914;51.008;4.300;2023-02-01T18:50:50;10.00;99.90
19538;DHT22;9914;51.008;4.300;2023-02-01T18:53:20;9.90;99.90
19538;DHT22;9914;51.008;4.300;2023-02-01T18:55:46;10.00;99.90